sensor_id;sensor_type;location;lat;lon;timestamp;temperature;humidity
22984;DHT22;11658;48.908;9.140;2023-02-15T04:02:00;-0.90;99.90
22984;DHT22;11658;48.908;9.140;2023-02-15T04:04:36;-1.00;99.90
22984;DHT22;11658;48.908;9.140;2023-02-15T04:07:04;-1.10;99.90
22984;DHT22;11658;48.908;9.140;2023-02-15T04:09:30;-1.00;99.90
22984;DHT22;11658;48.908;9.140;2023-02-15T04:12:14;-0.90;99.90
22984;DHT22;11658;48.908;9.140;2023-02-15T04:14:39;-0.80;99.90
22984;DHT22;11658;48.908;9.140;2023-02-15T04:17:24;-0.70;99.90
22984;DHT22;11658;48.908;9.140;2023-02-15T04:19:49;-0.60;99.90
22984;DHT22;11658;48.908;9.140;2023-02-15T04:22:33;-0.60;99.90
22984;DHT22;11658;48.908;9.140;2023-02-15T04:25:17;-0.50;99.90
22984;DHT22;11658;48.908;9.140;2023-02-15T04:27:49;-0.50;99.90
22984;DHT22;11658;48.908;9.140;2023-02-15T04:30:17;-0.50;99.90
22984;DHT22;11658;48.908;9.140;2023-02-15T04:32:44;-0.60;99.90
22984;DHT22;11658;48.908;9.140;2023-02-15T04:35:09;-0.60;99.90
22984;DHT22;11658;48.908;9.140;2023-02-15T04:37:36;-0.80;99.90
22984;DHT22;11658;48.908;9.140;2023-02-15T04:40:03;-0.90;99.90
22984;DHT22;11658;48.908;9.140;2023-02-15T04:42:29;-0.90;99.90
22984;DHT22;11658;48.908;9.140;2023-02-15T04:44:55;-0.90;99.90
22984;DHT22;11658;48.908;9.140;2023-02-15T04:47:21;-0.80;99.90
22984;DHT22;11658;48.908;9.140;2023-02-15T04:49:46;-0.90;99.90
22984;DHT22;11658;48.908;9.140;2023-02-15T04:52:12;-0.90;99.90
22984;DHT22;11658;48.908;9.140;2023-02-15T04:54:38;-1.00;99.90
22984;DHT22;11658;48.908;9.140;2023-02-15T04:57:04;-1.00;99.90
22984;DHT22;11658;48.908;9.140;2023-02-15T04:59:30;-1.00;99.90
22984;DHT22;11658;48.908;9.140;2023-02-15T05:01:56;-1.10;99.90
22984;DHT22;11658;48.908;9.140;2023-02-15T05:04:22;-1.20;99.90
22984;DHT22;11658;48.908;9.140;2023-02-15T05:06:48;-1.20;99.90
22984;DHT22;11658;48.908;9.140;2023-02-15T05:09:14;-1.20;99.90
22984;DHT22;11658;48.908;9.140;2023-02-15T05:11:40;-1.20;99.90
22984;DHT22;11658;48.908;9.140;2023-02-15T05:14:05;-1.30;99.90
22984;DHT22;11658;48.908;9.140;2023-02-15T05:16:31;-1.40;99.90
22984;DHT22;11658;48.908;9.140;2023-02-15T05:18:57;-1.50;99.90
22984;DHT22;11658;48.908;9.140;2023-02-15T05:21:22;-1.50;99.90
22984;DHT22;11658;48.908;9.140;2023-02-15T05:23:48;-1.60;99.90
22984;DHT22;11658;48.908;9.140;2023-02-15T05:26:17;-1.40;99.90
22984;DHT22;11658;48.908;9.140;2023-02-15T05:29:02;-1.40;99.90
22984;DHT22;11658;48.908;9.140;2023-02-15T05:31:28;-1.40;99.90
22984;DHT22;11658;48.908;9.140;2023-02-15T05:33:53;-1.50;99.90
22984;DHT22;11658;48.908;9.140;2023-02-15T05:36:19;-1.60;99.90
22984;DHT22;11658;48.908;9.140;2023-02-15T05:38:45;-1.40;99.90
22984;DHT22;11658;48.908;9.140;2023-02-15T05:41:11;-1.40;99.90
22984;DHT22;11658;48.908;9.140;2023-02-15T05:43:37;-1.40;99.90
22984;DHT22;11658;48.908;9.140;2023-02-15T05:46:03;-1.30;99.90
22984;DHT22;11658;48.908;9.140;2023-02-15T05:48:30;-1.40;99.90
22984;DHT22;11658;48.908;9.140;2023-02-15T05:51:12;-1.40;99.90
22984;DHT22;11658;48.908;9.140;2023-02-15T05:53:42;-1.50;99.90
22984;DHT22;11658;48.908;9.140;2023-02-15T05:56:09;-1.40;99.90
22984;DHT22;11658;48.908;9.140;2023-02-15T05:58:38;-1.30;99.90
22984;DHT22;11658;48.908;9.140;2023-02-15T06:03:37;-1.10;99.90
22984;DHT22;11658;48.908;9.140;2023-02-15T06:06:03;-1.10;99.90
22984;DHT22;11658;48.908;9.140;2023-02-15T06:08:30;-1.20;99.90
22984;DHT22;11658;48.908;9.140;2023-02-15T06:10:56;-1.30;99.90
22984;DHT22;11658;48.908;9.140;2023-02-15T06:13:22;-1.20;99.90
22984;DHT22;11658;48.908;9.140;2023-02-15T06:15:47;-1.00;99.90
22984;DHT22;11658;48.908;9.140;2023-02-15T06:18:13;-1.00;99.90
22984;DHT22;11658;48.908;9.140;2023-02-15T06:20:38;-1.00;99.90
22984;DHT22;11658;48.908;9.140;2023-02-15T06:23:04;-0.90;99.90
22984;DHT22;11658;48.908;9.140;2023-02-15T06:25:30;-0.80;99.90
22984;DHT22;11658;48.908;9.140;2023-02-15T06:27:55;-0.80;99.90
22984;DHT22;11658;48.908;9.140;2023-02-15T06:30:21;-0.80;99.90
22984;DHT22;11658;48.908;9.140;2023-02-15T06:32:47;-0.80;99.90
22984;DHT22;11658;48.908;9.140;2023-02-15T06:35:12;-0.70;99.90
22984;DHT22;11658;48.908;9.140;2023-02-15T06:37:38;-0.70;99.90
22984;DHT22;11658;48.908;9.140;2023-02-15T06:45:08;-1.00;99.90
22984;DHT22;11658;48.908;9.140;2023-02-15T06:47:33;-1.20;99.90
22984;DHT22;11658;48.908;9.140;2023-02-15T06:49:59;-1.30;99.90
22984;DHT22;11658;48.908;9.140;2023-02-15T06:52:25;-1.30;99.90
22984;DHT22;11658;48.908;9.140;2023-02-15T06:54:53;-1.20;99.90
22984;DHT22;11658;48.908;9.140;2023-02-15T06:57:19;-1.20;99.90
22984;DHT22;11658;48.908;9.140;2023-02-15T06:59:45;-1.20;99.90
22984;DHT22;11658;48.908;9.140;2023-02-15T07:02:12;-1.10;99.90
22984;DHT22;11658;48.908;9.140;2023-02-15T07:04:37;-1.10;99.90
22984;DHT22;11658;48.908;9.140;2023-02-15T07:07:03;-1.20;99.90
22984;DHT22;11658;48.908;9.140;2023-02-15T07:09:29;-1.10;99.90
22984;DHT22;11658;48.908;9.140;2023-02-15T07:11:55;-1.00;99.90
22984;DHT22;11658;48.908;9.140;2023-02-15T07:14:39;-0.90;99.90
22984;DHT22;11658;48.908;9.140;2023-02-15T07:17:06;-0.90;99.90
22984;DHT22;11658;48.908;9.140;2023-02-15T07:19:31;-0.80;99.90
22984;DHT22;11658;48.908;9.140;2023-02-15T07:21:57;-0.90;99.90
22984;DHT22;11658;48.908;9.140;2023-02-15T07:24:22;-1.10;99.90
22984;DHT22;11658;48.908;9.140;2023-02-15T07:26:48;-1.10;99.90
22984;DHT22;11658;48.908;9.140;2023-02-15T07:29:14;-1.00;99.90
22984;DHT22;11658;48.908;9.140;2023-02-15T07:31:40;-0.90;99.90
22984;DHT22;11658;48.908;9.140;2023-02-15T07:34:08;-0.80;99.90
22984;DHT22;11658;48.908;9.140;2023-02-15T07:36:34;-0.70;99.90
22984;DHT22;11658;48.908;9.140;2023-02-15T07:39:00;-0.70;99.90
22984;DHT22;11658;48.908;9.140;2023-02-15T07:41:25;-0.80;99.90
22984;DHT22;11658;48.908;9.140;2023-02-15T07:43:51;-0.80;99.90
22984;DHT22;11658;48.908;9.140;2023-02-15T07:46:17;-0.70;99.90
22984;DHT22;11658;48.908;9.140;2023-02-15T07:48:44;-0.60;99.90
22984;DHT22;11658;48.908;9.140;2023-02-15T07:51:11;-0.50;99.90
22984;DHT22;11658;48.908;9.140;2023-02-15T07:53:37;-0.50;99.90
22984;DHT22;11658;48.908;9.140;2023-02-15T07:56:06;-0.50;99.90
22984;DHT22;11658;48.908;9.140;2023-02-15T07:58:33;-0.40;99.90
22984;DHT22;11658;48.908;9.140;2023-02-15T08:01:19;-0.30;99.90
22984;DHT22;11658;48.908;9.140;2023-02-15T08:03:45;-0.20;99.90
22984;DHT22;11658;48.908;9.140;2023-02-15T08:06:10;-0.20;99.90
22984;DHT22;11658;48.908;9.140;2023-02-15T08:08:40;0.00;99.90
22984;DHT22;11658;48.908;9.140;2023-02-15T08:13:55;0.10;99.90
22984;DHT22;11658;48.908;9.140;2023-02-15T08:19:08;0.10;99.90
22984;DHT22;11658;48.908;9.140;2023-02-15T08:21:36;0.20;99.90
22984;DHT22;11658;48.908;9.140;2023-02-15T08:24:04;-0.10;99.90
22984;DHT22;11658;48.908;9.140;2023-02-15T08:26:31;0.00;99.90
22984;DHT22;11658;48.908;9.140;2023-02-15T08:28:57;0.20;99.90
22984;DHT22;11658;48.908;9.140;2023-02-15T08:31:23;0.20;99.90
22984;DHT22;11658;48.908;9.140;2023-02-15T08:33:50;0.10;99.90
22984;DHT22;11658;48.908;9.140;2023-02-15T08:36:19;0.20;99.90
22984;DHT22;11658;48.908;9.140;2023-02-15T08:38:45;0.30;99.90
22984;DHT22;11658;48.908;9.140;2023-02-15T08:41:16;0.50;99.90
22984;DHT22;11658;48.908;9.140;2023-02-15T08:43:42;0.60;99.90
22984;DHT22;11658;48.908;9.140;2023-02-15T08:46:09;0.80;99.90
22984;DHT22;11658;48.908;9.140;2023-02-15T08:48:35;0.60;99.90
22984;DHT22;11658;48.908;9.140;2023-02-15T08:51:26;0.80;99.90
22984;DHT22;11658;48.908;9.140;2023-02-15T08:53:54;0.90;99.90
22984;DHT22;11658;48.908;9.140;2023-02-15T08:56:22;1.20;99.90
22984;DHT22;11658;48.908;9.140;2023-02-15T08:58:49;1.10;99.90
22984;DHT22;11658;48.908;9.140;2023-02-15T09:01:16;1.20;99.90
22984;DHT22;11658;48.908;9.140;2023-02-15T09:03:50;1.00;99.90
22984;DHT22;11658;48.908;9.140;2023-02-15T09:06:19;0.80;99.90
22984;DHT22;11658;48.908;9.140;2023-02-15T09:08:45;0.50;99.90
22984;DHT22;11658;48.908;9.140;2023-02-15T09:11:20;0.20;99.90
22984;DHT22;11658;48.908;9.140;2023-02-15T09:13:58;0.30;99.90
22984;DHT22;11658;48.908;9.140;2023-02-15T09:16:26;0.30;99.90
22984;DHT22;11658;48.908;9.140;2023-02-15T09:18:53;0.50;99.90
22984;DHT22;11658;48.908;9.140;2023-02-15T09:21:21;0.70;99.90
22984;DHT22;11658;48.908;9.140;2023-02-15T09:23:49;1.10;99.90
22984;DHT22;11658;48.908;9.140;2023-02-15T09:26:18;1.20;99.90
22984;DHT22;11658;48.908;9.140;2023-02-15T09:28:44;1.30;99.90
22984;DHT22;11658;48.908;9.140;2023-02-15T09:31:18;1.20;99.90
22984;DHT22;11658;48.908;9.140;2023-02-15T09:33:45;1.10;99.90
22984;DHT22;11658;48.908;9.140;2023-02-15T09:36:40;1.10;99.90
22984;DHT22;11658;48.908;9.140;2023-02-15T09:39:17;1.00;99.90
22984;DHT22;11658;48.908;9.140;2023-02-15T09:47:42;1.50;99.90
22984;DHT22;11658;48.908;9.140;2023-02-15T09:55:53;2.30;99.90
22984;DHT22;11658;48.908;9.140;2023-02-15T10:09:30;2.30;99.90
22984;DHT22;11658;48.908;9.140;2023-02-15T10:15:03;2.70;99.90
22984;DHT22;11658;48.908;9.140;2023-02-15T10:28:26;2.70;99.90
22984;DHT22;11658;48.908;9.140;2023-02-15T10:31:01;2.70;99.90
22984;DHT22;11658;48.908;9.140;2023-02-15T10:33:40;2.90;99.90
22984;DHT22;11658;48.908;9.140;2023-02-15T10:41:58;4.40;99.90
22984;DHT22;11658;48.908;9.140;2023-02-15T10:49:44;4.40;99.90
22984;DHT22;11658;48.908;9.140;2023-02-15T10:52:21;4.00;99.90
22984;DHT22;11658;48.908;9.140;2023-02-15T10:55:07;3.70;99.90
22984;DHT22;11658;48.908;9.140;2023-02-15T11:05:26;3.80;99.90
22984;DHT22;11658;48.908;9.140;2023-02-15T11:07:55;4.00;99.90
22984;DHT22;11658;48.908;9.140;2023-02-15T11:10:26;4.10;99.90
22984;DHT22;11658;48.908;9.140;2023-02-15T11:12:54;4.00;99.90
22984;DHT22;11658;48.908;9.140;2023-02-15T11:20:55;3.50;99.90
22984;DHT22;11658;48.908;9.140;2023-02-15T11:23:21;3.40;99.90
22984;DHT22;11658;48.908;9.140;2023-02-15T11:25:53;3.40;99.90
22984;DHT22;11658;48.908;9.140;2023-02-15T11:28:28;3.50;99.90
22984;DHT22;11658;48.908;9.140;2023-02-15T11:30:55;3.50;99.90
22984;DHT22;11658;48.908;9.140;2023-02-15T11:33:29;3.40;99.90
22984;DHT22;11658;48.908;9.140;2023-02-15T11:36:07;3.20;99.90
22984;DHT22;11658;48.908;9.140;2023-02-15T11:38:34;3.10;99.90
22984;DHT22;11658;48.908;9.140;2023-02-15T11:41:19;2.90;99.90
22984;DHT22;11658;48.908;9.140;2023-02-15T11:43:49;2.90;99.90
22984;DHT22;11658;48.908;9.140;2023-02-15T11:46:16;2.50;99.90
22984;DHT22;11658;48.908;9.140;2023-02-15T11:48:44;2.50;99.90
22984;DHT22;11658;48.908;9.140;2023-02-15T11:51:11;2.50;99.90
22984;DHT22;11658;48.908;9.140;2023-02-15T11:53:38;2.60;99.90
22984;DHT22;11658;48.908;9.140;2023-02-15T11:56:04;2.80;99.90
22984;DHT22;11658;48.908;9.140;2023-02-15T11:58:42;2.80;99.90
22984;DHT22;11658;48.908;9.140;2023-02-15T12:03:47;2.80;99.90
22984;DHT22;11658;48.908;9.140;2023-02-15T12:06:15;2.90;99.90
22984;DHT22;11658;48.908;9.140;2023-02-15T12:08:42;2.80;99.90
22984;DHT22;11658;48.908;9.140;2023-02-15T12:11:44;2.90;99.90
22984;DHT22;11658;48.908;9.140;2023-02-15T12:14:12;2.90;99.90
22984;DHT22;11658;48.908;9.140;2023-02-15T12:19:13;3.20;99.90
22984;DHT22;11658;48.908;9.140;2023-02-15T12:21:43;3.30;99.90
22984;DHT22;11658;48.908;9.140;2023-02-15T12:26:40;3.60;99.90
22984;DHT22;11658;48.908;9.140;2023-02-15T12:29:12;3.70;99.90
22984;DHT22;11658;48.908;9.140;2023-02-15T12:31:41;3.70;99.90
22984;DHT22;11658;48.908;9.140;2023-02-15T12:34:18;3.70;99.90
22984;DHT22;11658;48.908;9.140;2023-02-15T12:36:46;3.80;99.90
22984;DHT22;11658;48.908;9.140;2023-02-15T12:39:17;3.70;99.90
22984;DHT22;11658;48.908;9.140;2023-02-15T12:41:46;3.60;99.90
22984;DHT22;11658;48.908;9.140;2023-02-15T12:44:20;3.70;99.90
22984;DHT22;11658;48.908;9.140;2023-02-15T12:46:55;3.80;99.90
22984;DHT22;11658;48.908;9.140;2023-02-15T12:49:21;3.90;99.90
22984;DHT22;11658;48.908;9.140;2023-02-15T12:56:53;4.20;99.90
22984;DHT22;11658;48.908;9.140;2023-02-15T12:59:18;4.30;99.90
22984;DHT22;11658;48.908;9.140;2023-02-15T13:01:47;4.30;99.90
22984;DHT22;11658;48.908;9.140;2023-02-15T13:04:26;4.30;99.90
22984;DHT22;11658;48.908;9.140;2023-02-15T13:06:53;4.40;99.90
22984;DHT22;11658;48.908;9.140;2023-02-15T13:11:45;4.70;99.90
22984;DHT22;11658;48.908;9.140;2023-02-15T13:16:44;4.90;99.90
22984;DHT22;11658;48.908;9.140;2023-02-15T13:19:12;5.00;99.90
22984;DHT22;11658;48.908;9.140;2023-02-15T13:21:39;5.10;99.90
22984;DHT22;11658;48.908;9.140;2023-02-15T13:24:06;5.10;99.90
22984;DHT22;11658;48.908;9.140;2023-02-15T13:26:36;5.20;99.90
22984;DHT22;11658;48.908;9.140;2023-02-15T13:31:45;5.20;99.90
22984;DHT22;11658;48.908;9.140;2023-02-15T13:34:12;5.40;99.90
22984;DHT22;11658;48.908;9.140;2023-02-15T13:41:43;5.70;99.90
22984;DHT22;11658;48.908;9.140;2023-02-15T13:44:18;5.70;99.90
22984;DHT22;11658;48.908;9.140;2023-02-15T13:54:28;6.00;99.90
22984;DHT22;11658;48.908;9.140;2023-02-15T13:57:01;6.10;99.90
22984;DHT22;11658;48.908;9.140;2023-02-15T13:59:33;6.30;99.90
22984;DHT22;11658;48.908;9.140;2023-02-15T14:07:33;6.30;99.90
22984;DHT22;11658;48.908;9.140;2023-02-15T14:15:28;6.60;99.90
22984;DHT22;11658;48.908;9.140;2023-02-15T14:20:44;6.80;99.90
22984;DHT22;11658;48.908;9.140;2023-02-15T14:23:17;6.80;99.90
22984;DHT22;11658;48.908;9.140;2023-02-15T14:25:54;6.90;99.90
22984;DHT22;11658;48.908;9.140;2023-02-15T14:28:43;7.00;99.90
22984;DHT22;11658;48.908;9.140;2023-02-15T14:31:06;7.00;99.90
22984;DHT22;11658;48.908;9.140;2023-02-15T14:33:35;7.10;99.90
22984;DHT22;11658;48.908;9.140;2023-02-15T14:36:02;7.10;99.90
22984;DHT22;11658;48.908;9.140;2023-02-15T14:38:36;7.20;99.90
22984;DHT22;11658;48.908;9.140;2023-02-15T14:41:07;7.20;99.90
22984;DHT22;11658;48.908;9.140;2023-02-15T14:43:58;7.20;99.90
22984;DHT22;11658;48.908;9.140;2023-02-15T14:49:02;7.20;99.90
22984;DHT22;11658;48.908;9.140;2023-02-15T14:56:40;7.30;99.90
22984;DHT22;11658;48.908;9.140;2023-02-15T15:02:29;7.30;99.90
22984;DHT22;11658;48.908;9.140;2023-02-15T15:04:31;7.30;99.90
22984;DHT22;11658;48.908;9.140;2023-02-15T15:06:59;7.30;99.90
22984;DHT22;11658;48.908;9.140;2023-02-15T15:09:26;7.40;99.90
22984;DHT22;11658;48.908;9.140;2023-02-15T15:11:53;7.30;99.90
22984;DHT22;11658;48.908;9.140;2023-02-15T15:16:56;7.50;99.90
22984;DHT22;11658;48.908;9.140;2023-02-15T15:29:52;7.60;99.90
22984;DHT22;11658;48.908;9.140;2023-02-15T15:32:18;7.50;99.90
22984;DHT22;11658;48.908;9.140;2023-02-15T15:49:57;7.40;99.90
22984;DHT22;11658;48.908;9.140;2023-02-15T15:52:23;7.30;99.90
22984;DHT22;11658;48.908;9.140;2023-02-15T15:54:50;7.20;99.90
22984;DHT22;11658;48.908;9.140;2023-02-15T15:57:28;7.10;99.90
22984;DHT22;11658;48.908;9.140;2023-02-15T15:59:54;7.10;99.90
22984;DHT22;11658;48.908;9.140;2023-02-15T16:02:21;7.10;99.90
22984;DHT22;11658;48.908;9.140;2023-02-15T16:04:48;7.10;99.90
22984;DHT22;11658;48.908;9.140;2023-02-15T16:10:04;6.90;99.90
22984;DHT22;11658;48.908;9.140;2023-02-15T16:12:32;6.80;99.90
22984;DHT22;11658;48.908;9.140;2023-02-15T16:15:00;6.80;99.90
22984;DHT22;11658;48.908;9.140;2023-02-15T16:17:27;6.70;99.90
22984;DHT22;11658;48.908;9.140;2023-02-15T16:19:59;6.70;99.90
22984;DHT22;11658;48.908;9.140;2023-02-15T16:22:25;6.60;99.90
22984;DHT22;11658;48.908;9.140;2023-02-15T16:27:36;6.40;99.90
22984;DHT22;11658;48.908;9.140;2023-02-15T16:32:46;6.10;99.90
22984;DHT22;11658;48.908;9.140;2023-02-15T16:35:13;5.90;99.90
22984;DHT22;11658;48.908;9.140;2023-02-15T16:37:39;5.80;99.90
22984;DHT22;11658;48.908;9.140;2023-02-15T16:40:05;5.70;99.90
22984;DHT22;11658;48.908;9.140;2023-02-15T16:42:30;5.60;99.90
22984;DHT22;11658;48.908;9.140;2023-02-15T16:45:06;5.50;99.90
22984;DHT22;11658;48.908;9.140;2023-02-15T16:47:33;5.40;99.90
22984;DHT22;11658;48.908;9.140;2023-02-15T16:50:02;5.30;99.90
22984;DHT22;11658;48.908;9.140;2023-02-15T16:52:27;5.20;99.90
22984;DHT22;11658;48.908;9.140;2023-02-15T16:54:55;5.10;99.90
22984;DHT22;11658;48.908;9.140;2023-02-15T16:57:23;5.10;99.90
22984;DHT22;11658;48.908;9.140;2023-02-15T16:59:49;5.00;99.90
22984;DHT22;11658;48.908;9.140;2023-02-15T17:02:16;4.90;99.90
22984;DHT22;11658;48.908;9.140;2023-02-15T17:04:42;4.80;99.90
22984;DHT22;11658;48.908;9.140;2023-02-15T17:09:48;4.60;99.90
22984;DHT22;11658;48.908;9.140;2023-02-15T17:12:35;4.50;99.90
22984;DHT22;11658;48.908;9.140;2023-02-15T17:14:59;4.40;99.90
22984;DHT22;11658;48.908;9.140;2023-02-15T17:17:25;4.40;99.90
22984;DHT22;11658;48.908;9.140;2023-02-15T17:19:51;4.30;99.90
22984;DHT22;11658;48.908;9.140;2023-02-15T17:22:26;4.20;99.90
22984;DHT22;11658;48.908;9.140;2023-02-15T17:25:01;4.20;99.90
22984;DHT22;11658;48.908;9.140;2023-02-15T17:27:28;4.10;99.90
22984;DHT22;11658;48.908;9.140;2023-02-15T17:29:57;4.00;99.90
22984;DHT22;11658;48.908;9.140;2023-02-15T17:32:26;3.90;99.90
22984;DHT22;11658;48.908;9.140;2023-02-15T17:37:30;3.80;99.90
22984;DHT22;11658;48.908;9.140;2023-02-15T17:39:56;3.70;99.90
22984;DHT22;11658;48.908;9.140;2023-02-15T17:42:22;3.70;99.90
22984;DHT22;11658;48.908;9.140;2023-02-15T17:44:48;3.70;99.90
22984;DHT22;11658;48.908;9.140;2023-02-15T17:47:15;3.60;99.90
22984;DHT22;11658;48.908;9.140;2023-02-15T17:49:41;3.60;99.90
22984;DHT22;11658;48.908;9.140;2023-02-15T17:52:09;3.50;99.90
22984;DHT22;11658;48.908;9.140;2023-02-15T17:54:36;3.50;99.90
22984;DHT22;11658;48.908;9.140;2023-02-15T17:57:20;3.50;99.90
22984;DHT22;11658;48.908;9.140;2023-02-15T17:59:46;3.40;99.90
22984;DHT22;11658;48.908;9.140;2023-02-15T18:02:31;3.40;99.90
22984;DHT22;11658;48.908;9.140;2023-02-15T18:05:17;3.30;99.90
22984;DHT22;11658;48.908;9.140;2023-02-15T18:08:02;3.30;99.90
22984;DHT22;11658;48.908;9.140;2023-02-15T18:10:46;3.20;99.90
22984;DHT22;11658;48.908;9.140;2023-02-15T18:13:30;3.20;99.90
22984;DHT22;11658;48.908;9.140;2023-02-15T18:15:55;3.10;99.90
22984;DHT22;11658;48.908;9.140;2023-02-15T18:18:21;3.00;99.90
22984;DHT22;11658;48.908;9.140;2023-02-15T18:20:48;2.90;99.90
22984;DHT22;11658;48.908;9.140;2023-02-15T18:23:13;2.90;99.90
22984;DHT22;11658;48.908;9.140;2023-02-15T18:25:39;2.90;99.90
22984;DHT22;11658;48.908;9.140;2023-02-15T18:28:05;2.90;99.90
22984;DHT22;11658;48.908;9.140;2023-02-15T18:30:34;2.80;99.90
22984;DHT22;11658;48.908;9.140;2023-02-15T18:33:00;2.80;99.90
22984;DHT22;11658;48.908;9.140;2023-02-15T18:35:27;2.80;99.90
22984;DHT22;11658;48.908;9.140;2023-02-15T18:37:54;2.70;99.90
22984;DHT22;11658;48.908;9.140;2023-02-15T18:40:20;2.70;99.90
22984;DHT22;11658;48.908;9.140;2023-02-15T18:42:46;2.70;99.90
22984;DHT22;11658;48.908;9.140;2023-02-15T18:45:20;2.60;99.90
22984;DHT22;11658;48.908;9.140;2023-02-15T18:47:46;2.50;99.90
22984;DHT22;11658;48.908;9.140;2023-02-15T18:50:12;2.50;99.90
22984;DHT22;11658;48.908;9.140;2023-02-15T18:52:38;2.50;99.90
22984;DHT22;11658;48.908;9.140;2023-02-15T18:55:17;2.50;99.90
22984;DHT22;11658;48.908;9.140;2023-02-15T18:57:44;2.50;99.90
22984;DHT22;11658;48.908;9.140;2023-02-15T19:00:14;2.50;99.90
22984;DHT22;11658;48.908;9.140;2023-02-15T19:02:40;2.40;99.90
22984;DHT22;11658;48.908;9.140;2023-02-15T19:05:05;2.40;99.90
22984;DHT22;11658;48.908;9.140;2023-02-15T19:07:31;2.40;99.90
22984;DHT22;11658;48.908;9.140;2023-02-15T19:09:58;2.30;99.90
22984;DHT22;11658;48.908;9.140;2023-02-15T19:12:25;2.30;99.90
22984;DHT22;11658;48.908;9.140;2023-02-15T19:14:51;2.30;99.90
22984;DHT22;11658;48.908;9.140;2023-02-15T19:17:18;2.40;99.90
22984;DHT22;11658;48.908;9.140;2023-02-15T19:19:44;2.30;99.90
22984;DHT22;11658;48.908;9.140;2023-02-15T19:22:13;2.30;99.90
22984;DHT22;11658;48.908;9.140;2023-02-15T19:24:39;2.30;99.90
22984;DHT22;11658;48.908;9.140;2023-02-15T19:27:06;2.30;99.90
22984;DHT22;11658;48.908;9.140;2023-02-15T19:29:32;2.30;99.90
22984;DHT22;11658;48.908;9.140;2023-02-15T19:31:58;2.20;99.90
22984;DHT22;11658;48.908;9.140;2023-02-15T19:34:23;2.20;99.90
22984;DHT22;11658;48.908;9.140;2023-02-15T19:36:49;2.20;99.90
22984;DHT22;11658;48.908;9.140;2023-02-15T19:41:50;2.10;99.90
22984;DHT22;11658;48.908;9.140;2023-02-15T19:44:16;2.10;99.90
22984;DHT22;11658;48.908;9.140;2023-02-15T19:46:42;2.10;99.90
22984;DHT22;11658;48.908;9.140;2023-02-15T19:49:08;2.10;99.90
22984;DHT22;11658;48.908;9.140;2023-02-15T19:51:34;2.10;99.90
22984;DHT22;11658;48.908;9.140;2023-02-15T19:54:00;2.00;99.90
22984;DHT22;11658;48.908;9.140;2023-02-15T19:56:25;2.00;99.90
22984;DHT22;11658;48.908;9.140;2023-02-15T19:58:51;2.00;99.90
22984;DHT22;11658;48.908;9.140;2023-02-15T20:01:19;2.00;99.90
22984;DHT22;11658;48.908;9.140;2023-02-15T20:03:46;2.00;99.90
22984;DHT22;11658;48.908;9.140;2023-02-15T20:06:12;2.00;99.90
22984;DHT22;11658;48.908;9.140;2023-02-15T20:08:39;2.10;99.90
22984;DHT22;11658;48.908;9.140;2023-02-15T20:11:08;2.10;99.90
22984;DHT22;11658;48.908;9.140;2023-02-15T20:13:34;2.10;99.90
22984;DHT22;11658;48.908;9.140;2023-02-15T20:15:59;2.10;99.90
22984;DHT22;11658;48.908;9.140;2023-02-15T20:18:29;2.20;99.90
22984;DHT22;11658;48.908;9.140;2023-02-15T20:20:54;2.20;99.90
22984;DHT22;11658;48.908;9.140;2023-02-15T20:25:46;2.10;99.90
22984;DHT22;11658;48.908;9.140;2023-02-15T20:28:15;2.10;99.90
22984;DHT22;11658;48.908;9.140;2023-02-15T20:30:41;2.10;99.90
22984;DHT22;11658;48.908;9.140;2023-02-15T20:33:06;2.00;99.90
22984;DHT22;11658;48.908;9.140;2023-02-15T20:35:32;2.00;99.90
22984;DHT22;11658;48.908;9.140;2023-02-15T20:37:57;2.00;99.90
22984;DHT22;11658;48.908;9.140;2023-02-15T20:40:27;2.00;99.90
22984;DHT22;11658;48.908;9.140;2023-02-15T20:42:53;1.90;99.90
22984;DHT22;11658;48.908;9.140;2023-02-15T20:45:20;1.90;99.90
22984;DHT22;11658;48.908;9.140;2023-02-15T20:47:46;1.90;99.90
22984;DHT22;11658;48.908;9.140;2023-02-15T20:50:25;1.80;99.90
22984;DHT22;11658;48.908;9.140;2023-02-15T20:52:51;1.80;99.90
22984;DHT22;11658;48.908;9.140;2023-02-15T20:55:25;1.80;99.90
22984;DHT22;11658;48.908;9.140;2023-02-15T20:57:50;1.70;99.90
22984;DHT22;11658;48.908;9.140;2023-02-15T21:00:23;1.70;99.90
22984;DHT22;11658;48.908;9.140;2023-02-15T21:02:50;1.70;99.90
22984;DHT22;11658;48.908;9.140;2023-02-15T21:07:41;1.90;99.90
22984;DHT22;11658;48.908;9.140;2023-02-15T21:10:07;1.80;99.90
22984;DHT22;11658;48.908;9.140;2023-02-15T21:12:32;1.90;99.90
22984;DHT22;11658;48.908;9.140;2023-02-15T21:14:58;1.90;99.90
22984;DHT22;11658;48.908;9.140;2023-02-15T21:17:23;1.80;99.90
22984;DHT22;11658;48.908;9.140;2023-02-15T21:19:49;1.80;99.90
22984;DHT22;11658;48.908;9.140;2023-02-15T21:22:14;1.90;99.90
22984;DHT22;11658;48.908;9.140;2023-02-15T21:24:45;2.00;99.90
22984;DHT22;11658;48.908;9.140;2023-02-15T21:27:13;2.20;99.90
22984;DHT22;11658;48.908;9.140;2023-02-15T21:29:39;2.20;99.90
22984;DHT22;11658;48.908;9.140;2023-02-15T21:32:05;2.20;99.90
22984;DHT22;11658;48.908;9.140;2023-02-15T21:34:30;2.20;99.90
22984;DHT22;11658;48.908;9.140;2023-02-15T21:36:55;2.20;99.90
22984;DHT22;11658;48.908;9.140;2023-02-15T21:39:22;2.20;99.90
22984;DHT22;11658;48.908;9.140;2023-02-15T21:41:48;2.20;99.90
22984;DHT22;11658;48.908;9.140;2023-02-15T21:44:32;2.10;99.90
22984;DHT22;11658;48.908;9.140;2023-02-15T21:50:05;2.20;99.90
22984;DHT22;11658;48.908;9.140;2023-02-15T21:52:50;2.30;99.90
22984;DHT22;11658;48.908;9.140;2023-02-15T21:55:16;2.30;99.90
22984;DHT22;11658;48.908;9.140;2023-02-15T21:57:41;2.30;99.90
22984;DHT22;11658;48.908;9.140;2023-02-15T22:00:16;2.40;99.90
22984;DHT22;11658;48.908;9.140;2023-02-15T22:02:42;2.40;99.90
22984;DHT22;11658;48.908;9.140;2023-02-15T22:05:13;2.60;99.90
22984;DHT22;11658;48.908;9.140;2023-02-15T22:07:40;2.80;99.90
22984;DHT22;11658;48.908;9.140;2023-02-15T22:10:06;2.90;99.90
22984;DHT22;11658;48.908;9.140;2023-02-15T22:12:31;2.80;99.90
22984;DHT22;11658;48.908;9.140;2023-02-15T22:14:57;2.70;99.90
22984;DHT22;11658;48.908;9.140;2023-02-15T22:17:23;2.60;99.90
22984;DHT22;11658;48.908;9.140;2023-02-15T22:19:50;2.50;99.90
22984;DHT22;11658;48.908;9.140;2023-02-15T22:22:16;2.40;99.90
22984;DHT22;11658;48.908;9.140;2023-02-15T22:24:42;2.30;99.90
22984;DHT22;11658;48.908;9.140;2023-02-15T22:27:16;2.20;99.90
22984;DHT22;11658;48.908;9.140;2023-02-15T22:29:42;2.10;99.90
22984;DHT22;11658;48.908;9.140;2023-02-15T22:32:18;2.00;99.90
22984;DHT22;11658;48.908;9.140;2023-02-15T22:34:44;2.00;99.90
22984;DHT22;11658;48.908;9.140;2023-02-15T22:37:09;1.80;99.90
22984;DHT22;11658;48.908;9.140;2023-02-15T22:39:35;1.80;99.90
22984;DHT22;11658;48.908;9.140;2023-02-15T22:42:00;1.70;99.90
22984;DHT22;11658;48.908;9.140;2023-02-15T22:44:28;1.60;99.90
22984;DHT22;11658;48.908;9.140;2023-02-15T22:46:54;1.60;99.90
22984;DHT22;11658;48.908;9.140;2023-02-15T22:49:19;1.60;99.90
22984;DHT22;11658;48.908;9.140;2023-02-15T22:51:46;1.50;99.90
22984;DHT22;11658;48.908;9.140;2023-02-15T22:54:12;1.30;99.90
22984;DHT22;11658;48.908;9.140;2023-02-15T22:56:38;1.30;99.90